Time;durP1;ratioP1;P1;durP2;ratioP2;P2;SDS_P1;SDS_P2;PMS_P1;PMS_P2;Temp;Humidity;BMP_temperature;BMP_pressure;BME280_temperature;BME280_humidity;BME280_pressure;Samples;Min_cycle;Max_cycle;Signal;HPM_P1;HPM_P2
2021/06/25 00:02:11;;;;;;;8.70;7.78;;;;;;;15.46;100.00;101096.69;5064452;28;20649;-79
2021/06/25 00:04:37;;;;;;;9.95;8.90;;;;;;;15.51;100.00;101083.25;5058432;28;20090;-79
2021/06/25 00:07:04;;;;;;;11.40;9.07;;;;;;;15.51;100.00;101084.13;5067877;28;20044;-79
2021/06/25 00:09:31;;;;;;;8.68;7.72;;;;;;;15.47;100.00;101074.50;5051885;28;20044;-80
2021/06/25 00:11:57;;;;;;;9.05;8.15;;;;;;;15.47;100.00;101077.16;5055484;28;20403;-80
2021/06/25 00:14:24;;;;;;;9.30;8.40;;;;;;;15.46;100.00;101081.59;5052575;28;20037;-79
2021/06/25 00:16:51;;;;;;;10.10;8.43;;;;;;;15.45;100.00;101086.97;5065967;28;20040;-80
2021/06/25 00:19:18;;;;;;;10.63;9.52;;;;;;;15.45;100.00;101089.63;5052896;28;20460;-80
2021/06/25 00:21:45;;;;;;;10.00;9.00;;;;;;;15.42;100.00;101087.97;5049727;28;20033;-79
2021/06/25 00:24:12;;;;;;;9.45;8.45;;;;;;;15.43;100.00;101092.34;5064180;28;20033;-79
2021/06/25 00:26:39;;;;;;;9.90;8.90;;;;;;;15.45;100.00;101077.19;5039868;28;20086;-79
2021/06/25 00:29:05;;;;;;;11.88;9.98;;;;;;;15.50;100.00;101071.72;5065471;28;20071;-80
2021/06/25 00:31:32;;;;;;;9.68;8.68;;;;;;;15.48;100.00;101066.47;5042014;28;20041;-79
2021/06/25 00:33:59;;;;;;;12.50;9.93;;;;;;;15.53;100.00;101055.63;5054411;28;20110;-78
2021/06/25 00:36:26;;;;;;;10.73;9.68;;;;;;;15.53;100.00;101039.66;5053500;28;20058;-80
2021/06/25 00:38:52;;;;;;;10.55;9.43;;;;;;;15.53;100.00;101038.78;5066717;28;20103;-79
2021/06/25 00:41:19;;;;;;;12.05;9.30;;;;;;;15.51;100.00;101033.53;5052065;28;20037;-79
2021/06/25 00:43:46;;;;;;;10.35;9.27;;;;;;;15.48;100.00;101023.00;5072397;28;20627;-79
2021/06/25 00:46:13;;;;;;;10.20;9.13;;;;;;;15.43;100.00;101025.78;5067070;28;20041;-79
2021/06/25 00:48:39;;;;;;;11.35;9.68;;;;;;;15.45;100.00;101031.06;5070752;28;20052;-79
2021/06/25 00:51:06;;;;;;;9.68;8.73;;;;;;;15.37;100.00;101033.97;5066311;28;20039;-79
2021/06/25 00:53:33;;;;;;;8.98;7.55;;;;;;;15.34;100.00;101036.75;5050527;28;20036;-80
2021/06/25 00:56:00;;;;;;;11.13;9.77;;;;;;;15.34;100.00;101035.91;5051236;28;20077;-80
2021/06/25 00:58:26;;;;;;;9.52;8.52;;;;;;;15.35;100.00;101042.97;5039185;28;20040;-79
2021/06/25 01:00:53;;;;;;;10.00;9.00;;;;;;;15.35;100.00;101041.16;5069244;28;20033;-78
2021/06/25 01:03:20;;;;;;;11.23;10.02;;;;;;;15.38;100.00;101053.50;5038839;28;20177;-78
2021/06/25 01:05:46;;;;;;;12.77;9.80;;;;;;;15.38;100.00;101054.34;5051255;28;20620;-81
2021/06/25 01:08:13;;;;;;;10.75;8.98;;;;;;;15.41;100.00;101061.41;5047178;28;20094;-79
2021/06/25 01:10:41;;;;;;;11.18;9.90;;;;;;;15.45;100.00;101058.56;5060451;28;20530;-79
2021/06/25 01:13:08;;;;;;;10.50;9.40;;;;;;;15.46;100.00;101049.63;5054040;28;20044;-79
2021/06/25 01:15:35;;;;;;;11.00;9.43;;;;;;;15.49;100.00;101049.56;5063092;28;20040;-79
2021/06/25 01:18:02;;;;;;;10.88;9.40;;;;;;;15.45;100.00;101053.22;5069962;28;20063;-79
2021/06/25 01:20:31;;;;;;;9.82;8.82;;;;;;;15.40;100.00;101059.66;5068716;28;20079;-80
2021/06/25 01:22:58;;;;;;;11.18;10.07;;;;;;;15.37;100.00;101055.28;5054093;28;20080;-79
2021/06/25 01:25:30;;;;;;;10.27;9.27;;;;;;;15.33;100.00;101052.78;5063458;28;20045;-79
2021/06/25 01:28:02;;;;;;;9.13;8.23;;;;;;;15.33;100.00;101055.47;5046076;28;20044;-79
2021/06/25 01:30:33;;;;;;;10.55;9.00;;;;;;;15.33;100.00;101060.78;5028238;28;20478;-79
2021/06/25 01:33:02;;;;;;;10.02;9.02;;;;;;;15.31;100.00;101044.00;5062415;28;20705;-80
2021/06/25 01:35:29;;;;;;;10.75;9.68;;;;;;;15.31;100.00;101036.88;5065095;28;20094;-79
2021/06/25 01:37:55;;;;;;;9.23;8.10;;;;;;;15.32;100.00;101027.09;5050860;28;20069;-79
2021/06/25 01:40:23;;;;;;;10.07;9.07;;;;;;;15.26;100.00;101025.50;5070320;28;20685;-78
2021/06/25 01:42:50;;;;;;;9.48;8.48;;;;;;;15.27;100.00;101021.06;5053969;28;20105;-80
2021/06/25 01:45:19;;;;;;;9.77;8.63;;;;;;;15.25;100.00;101015.78;5058089;28;20059;-79
2021/06/25 01:47:47;;;;;;;10.35;9.25;;;;;;;15.30;100.00;101016.50;5064294;28;20036;-80
2021/06/25 01:50:17;;;;;;;10.60;9.48;;;;;;;15.28;100.00;101006.81;5043379;28;20493;-78
2021/06/25 01:52:46;;;;;;;10.65;9.02;;;;;;;15.24;100.00;100998.06;5050240;28;20505;-80
2021/06/25 01:55:13;;;;;;;9.48;8.48;;;;;;;15.18;100.00;100996.50;5049243;28;20741;-79
2021/06/25 01:57:40;;;;;;;11.18;9.85;;;;;;;15.19;100.00;100987.56;5033535;28;20094;-79
2021/06/25 02:00:08;;;;;;;10.07;9.07;;;;;;;15.12;100.00;100988.69;5067219;28;20044;-79
2021/06/25 02:02:35;;;;;;;10.27;8.73;;;;;;;15.07;100.00;100977.38;5049368;28;20555;-79
2021/06/25 02:05:03;;;;;;;9.32;8.43;;;;;;;15.05;100.00;100975.66;5047674;28;20095;-78
2021/06/25 02:07:29;;;;;;;10.98;9.77;;;;;;;15.11;100.00;100975.44;5053289;28;20060;-79
2021/06/25 02:09:57;;;;;;;10.25;9.13;;;;;;;15.03;100.00;100972.19;5052084;28;20044;-80
2021/06/25 02:12:24;;;;;;;11.75;9.63;;;;;;;14.95;100.00;100976.88;5065315;28;20044;-78
2021/06/25 02:14:53;;;;;;;11.70;10.27;;;;;;;14.93;100.00;100991.13;5064655;28;20046;-78
2021/06/25 02:17:20;;;;;;;8.98;7.97;;;;;;;14.86;100.00;100989.56;5067398;28;20036;-78
2021/06/25 02:19:47;;;;;;;9.65;8.73;;;;;;;14.86;100.00;100986.91;5045161;28;20048;-79
2021/06/25 02:22:15;;;;;;;8.73;7.47;;;;;;;14.78;100.00;100978.31;5053048;28;20094;-79
2021/06/25 02:24:42;;;;;;;9.45;7.63;;;;;;;14.74;100.00;100981.16;5044436;28;20526;-79
2021/06/25 02:27:09;;;;;;;9.05;8.05;;;;;;;14.66;100.00;100973.41;5066345;28;20071;-78
2021/06/25 02:29:36;;;;;;;10.15;8.82;;;;;;;14.63;100.00;100979.72;5057787;28;20098;-78
2021/06/25 02:32:03;;;;;;;9.02;8.02;;;;;;;14.56;100.00;100980.81;5055445;28;20086;-78
2021/06/25 02:34:29;;;;;;;10.02;8.93;;;;;;;14.54;100.00;100981.75;5063354;28;20037;-78
2021/06/25 02:36:56;;;;;;;9.23;8.32;;;;;;;14.46;100.00;100974.06;5065270;28;20110;-81
2021/06/25 02:39:23;;;;;;;10.48;8.43;;;;;;;14.44;100.00;100967.00;5023220;28;20041;-79
2021/06/25 02:41:49;;;;;;;9.93;8.82;;;;;;;14.39;100.00;100966.28;5041675;28;20052;-79
2021/06/25 02:44:16;;;;;;;9.23;8.25;;;;;;;14.28;100.00;100967.47;5049926;28;20098;-79
2021/06/25 02:46:43;;;;;;;8.15;7.35;;;;;;;14.21;100.00;100986.28;5052750;28;20060;-79
2021/06/25 02:49:09;;;;;;;9.82;8.35;;;;;;;14.19;100.00;100978.38;5051786;28;20379;-83
2021/06/25 02:51:36;;;;;;;10.18;8.65;;;;;;;14.19;100.00;100989.00;5028148;28;20052;-82
2021/06/25 02:54:03;;;;;;;9.82;8.82;;;;;;;14.20;100.00;100981.91;5046365;28;20131;-80
2021/06/25 02:56:30;;;;;;;12.93;8.50;;;;;;;14.13;100.00;100977.72;5067545;28;20040;-81
2021/06/25 02:58:57;;;;;;;10.23;8.07;;;;;;;14.06;100.00;100971.72;5035810;28;20719;-81
2021/06/25 03:01:23;;;;;;;9.07;8.18;;;;;;;14.03;100.00;100970.00;5048995;28;20407;-81
2021/06/25 03:03:50;;;;;;;10.07;8.55;;;;;;;14.03;100.00;100970.00;5066391;28;20041;-81
2021/06/25 03:06:17;;;;;;;9.80;8.25;;;;;;;13.97;100.00;100969.34;5049061;28;20649;-81
2021/06/25 03:08:43;;;;;;;10.63;8.88;;;;;;;13.97;100.00;100977.28;5052209;28;20059;-81
2021/06/25 03:11:10;;;;;;;9.77;8.77;;;;;;;13.94;100.00;100983.56;5044361;28;20036;-81
2021/06/25 03:13:37;;;;;;;9.13;8.10;;;;;;;13.96;100.00;100989.72;5055318;28;20036;-81
2021/06/25 03:16:03;;;;;;;10.32;9.23;;;;;;;13.96;100.00;100999.47;5030194;28;20071;-82
2021/06/25 03:18:30;;;;;;;9.80;8.50;;;;;;;14.03;100.00;100991.25;5054760;28;20490;-81
2021/06/25 03:20:57;;;;;;;8.85;7.95;;;;;;;14.02;100.00;100978.88;5046521;28;20101;-82
2021/06/25 03:23:24;;;;;;;12.32;10.57;;;;;;;14.13;100.00;100973.28;5043997;28;20635;-82
2021/06/25 03:25:50;;;;;;;9.80;8.80;;;;;;;14.17;100.00;100969.59;5016581;28;20045;-81
2021/06/25 03:28:17;;;;;;;11.68;9.45;;;;;;;14.21;100.00;100973.91;5068889;28;20036;-82
2021/06/25 03:30:45;;;;;;;14.07;10.98;;;;;;;14.28;100.00;100977.22;5055852;28;20465;-82
2021/06/25 03:33:12;;;;;;;12.25;10.93;;;;;;;14.35;100.00;100981.44;5046513;28;20057;-81
2021/06/25 03:35:38;;;;;;;16.40;13.75;;;;;;;14.39;100.00;100977.78;5035486;28;20052;-81
2021/06/25 03:38:05;;;;;;;13.93;11.00;;;;;;;14.46;100.00;100984.69;5063882;28;20029;-82
2021/06/25 03:40:34;;;;;;;12.30;10.85;;;;;;;14.50;100.00;100986.31;5047131;28;20455;-81
2021/06/25 03:43:00;;;;;;;13.20;11.20;;;;;;;14.54;100.00;100984.41;5048268;28;20048;-82
2021/06/25 03:45:27;;;;;;;11.77;10.00;;;;;;;14.56;100.00;100979.94;5058599;28;20044;-82
2021/06/25 03:47:54;;;;;;;13.55;10.93;;;;;;;14.57;100.00;100987.00;5057691;28;20090;-82
2021/06/25 03:50:20;;;;;;;12.00;9.82;;;;;;;14.57;100.00;100979.91;5031340;28;20494;-81
2021/06/25 03:52:47;;;;;;;13.45;11.38;;;;;;;14.62;100.00;100988.56;5033317;28;20041;-82
2021/06/25 03:55:14;;;;;;;12.32;10.48;;;;;;;14.60;100.00;100977.13;5031942;28;20049;-82
2021/06/25 03:57:41;;;;;;;12.73;11.30;;;;;;;14.63;100.00;100993.00;5049032;28;20392;-81
2021/06/25 04:00:11;;;;;;;11.10;9.40;;;;;;;14.63;100.00;100995.66;5041226;28;20048;-82
2021/06/25 04:02:38;;;;;;;14.07;11.73;;;;;;;14.69;100.00;101001.69;5030225;28;20044;-82
2021/06/25 04:05:07;;;;;;;11.75;9.98;;;;;;;14.73;100.00;100996.22;5035911;28;20102;-81
2021/06/25 04:07:34;;;;;;;15.57;11.32;;;;;;;14.67;100.00;100999.06;5032827;28;20040;-82
2021/06/25 04:10:03;;;;;;;12.10;9.77;;;;;;;14.71;100.00;101000.72;5034339;28;20102;-81
2021/06/25 04:12:31;;;;;;;12.23;9.57;;;;;;;14.77;100.00;101004.97;5055616;28;20036;-80
2021/06/25 04:14:58;;;;;;;12.20;10.32;;;;;;;14.82;100.00;101006.56;5050594;28;20044;-81
2021/06/25 04:17:24;;;;;;;12.00;9.30;;;;;;;14.88;100.00;101006.38;5063634;28;20036;-80
2021/06/25 04:19:51;;;;;;;12.35;10.63;;;;;;;14.97;100.00;101004.34;5045959;28;20060;-80
2021/06/25 04:22:19;;;;;;;13.90;11.93;;;;;;;15.09;100.00;100998.59;5050752;28;20044;-80
2021/06/25 04:24:50;;;;;;;12.75;10.63;;;;;;;15.21;100.00;100996.38;5044597;28;20041;-81
2021/06/25 04:27:17;;;;;;;14.30;10.65;;;;;;;15.18;100.00;100995.63;5059066;28;20367;-81
2021/06/25 04:29:45;;;;;;;11.13;9.77;;;;;;;15.23;100.00;100998.13;5056678;28;20098;-80
2021/06/25 04:32:12;;;;;;;13.30;11.05;;;;;;;15.18;100.00;101006.25;5051035;28;20035;-80
2021/06/25 04:34:39;;;;;;;11.20;10.00;;;;;;;15.21;100.00;100999.03;5046801;28;20045;-81
2021/06/25 04:37:09;;;;;;;12.25;10.45;;;;;;;15.25;100.00;101002.47;5053665;28;20486;-80
2021/06/25 04:39:36;;;;;;;13.18;10.40;;;;;;;15.23;100.00;100996.34;5049469;28;20048;-80
2021/06/25 04:42:03;;;;;;;12.02;10.15;;;;;;;15.32;100.00;101005.81;5051504;28;20067;-81
2021/06/25 04:44:29;;;;;;;15.65;12.30;;;;;;;15.33;100.00;101008.41;5036414;28;20060;-80
2021/06/25 04:46:56;;;;;;;10.68;9.25;;;;;;;15.40;100.00;101012.59;5036381;28;20468;-79
2021/06/25 04:49:23;;;;;;;12.38;10.88;;;;;;;15.49;100.00;101008.75;5047146;28;20048;-80
2021/06/25 04:51:54;;;;;;;13.60;11.40;;;;;;;15.51;100.00;101009.56;5061089;28;20171;-81
2021/06/25 04:54:20;;;;;;;12.40;9.65;;;;;;;15.57;100.00;101012.00;5046155;28;20630;-81
2021/06/25 04:56:48;;;;;;;11.57;10.38;;;;;;;15.66;100.00;101013.50;5042336;28;20044;-80
2021/06/25 04:59:14;;;;;;;11.55;10.25;;;;;;;15.82;100.00;101005.84;5037527;28;20048;-81
2021/06/25 05:01:41;;;;;;;11.25;9.10;;;;;;;15.88;100.00;101009.13;5052123;28;20041;-80
2021/06/25 05:04:08;;;;;;;11.75;10.15;;;;;;;16.03;100.00;100997.91;5037628;28;20046;-79
2021/06/25 05:06:34;;;;;;;10.93;9.70;;;;;;;16.13;100.00;101008.22;5034732;28;20044;-80
2021/06/25 05:09:01;;;;;;;11.35;10.15;;;;;;;16.22;100.00;101008.72;5039007;28;20049;-80
2021/06/25 05:11:28;;;;;;;16.50;12.82;;;;;;;16.24;100.00;101000.69;5035619;28;20040;-80
2021/06/25 05:13:56;;;;;;;15.55;10.95;;;;;;;16.44;100.00;101002.56;5059186;28;20041;-79
2021/06/25 05:16:24;;;;;;;12.00;10.75;;;;;;;16.64;100.00;101005.31;5048121;28;20040;-80
2021/06/25 05:18:51;;;;;;;12.80;10.45;;;;;;;17.03;100.00;101001.97;5042256;28;20110;-80
2021/06/25 05:21:19;;;;;;;11.48;9.13;;;;;;;17.43;100.00;100996.69;5041780;28;20135;-79
2021/06/25 05:23:47;;;;;;;11.05;9.43;;;;;;;17.48;100.00;101003.63;5056417;28;20059;-80
2021/06/25 05:26:15;;;;;;;12.23;10.23;;;;;;;17.49;100.00;101005.34;5056825;28;20044;-80
2021/06/25 05:28:41;;;;;;;10.55;8.75;;;;;;;17.44;100.00;101009.09;5048318;28;20424;-80
2021/06/25 05:31:08;;;;;;;12.15;8.98;;;;;;;17.46;100.00;101006.34;5050313;28;20091;-82
2021/06/25 05:33:35;;;;;;;12.88;10.50;;;;;;;17.47;100.00;101002.75;5038012;28;20436;-81
2021/06/25 05:36:02;;;;;;;15.15;12.23;;;;;;;17.48;100.00;100998.28;5054684;28;20040;-79
2021/06/25 05:38:29;;;;;;;14.85;12.10;;;;;;;17.44;100.00;100998.41;5042273;28;20519;-79
2021/06/25 05:40:56;;;;;;;16.20;11.30;;;;;;;17.35;100.00;101006.84;5065637;28;20113;-81
2021/06/25 05:43:23;;;;;;;13.77;11.07;;;;;;;17.36;100.00;101007.69;5069306;28;20071;-81
2021/06/25 05:45:50;;;;;;;15.38;13.48;;;;;;;17.87;100.00;101001.88;5049324;28;20048;-80
2021/06/25 05:48:17;;;;;;;10.35;9.30;;;;;;;19.59;94.78;101006.03;5057139;28;20055;-80
2021/06/25 05:50:44;;;;;;;13.05;10.27;;;;;;;21.16;78.71;100993.69;5066627;28;20045;-81
2021/06/25 05:53:11;;;;;;;10.25;8.43;;;;;;;22.65;73.75;100996.13;5080532;28;20033;-81
2021/06/25 05:55:38;;;;;;;8.60;7.50;;;;;;;23.72;68.06;100997.88;5062837;28;20053;-81
2021/06/25 05:58:04;;;;;;;9.65;8.65;;;;;;;24.71;62.83;101006.03;5067102;28;20106;-81
2021/06/25 06:00:31;;;;;;;9.73;7.60;;;;;;;25.60;59.53;100991.19;5048448;28;21012;-82
2021/06/25 06:02:58;;;;;;;8.48;7.68;;;;;;;25.68;56.94;101000.44;5044336;28;20098;-80
2021/06/25 06:05:25;;;;;;;9.00;8.13;;;;;;;25.37;59.79;101003.78;5059106;28;20041;-80
2021/06/25 06:07:52;;;;;;;9.13;7.47;;;;;;;25.33;59.89;100999.59;5058033;28;20583;-80
2021/06/25 06:10:18;;;;;;;9.68;8.77;;;;;;;24.80;57.62;100999.94;5064998;28;20087;-79
2021/06/25 06:12:45;;;;;;;10.82;9.73;;;;;;;23.70;61.81;100993.53;5060312;28;20045;-80
2021/06/25 06:15:15;;;;;;;9.52;8.43;;;;;;;23.21;64.59;101004.97;5031781;28;20075;-79
2021/06/25 06:17:47;;;;;;;9.27;8.27;;;;;;;22.80;66.92;100997.81;5045240;28;20048;-81
2021/06/25 06:20:22;;;;;;;10.73;9.63;;;;;;;22.52;69.11;101000.56;5048489;28;20036;-80
2021/06/25 06:31:22;;;;;;;10.43;9.00;;;;;;;21.95;68.43;100998.78;5061073;28;20044;-79
2021/06/25 06:33:56;;;;;;;11.48;10.27;;;;;;;21.87;69.46;101009.16;5049636;28;20577;-80
2021/06/25 06:36:30;;;;;;;11.80;10.55;;;;;;;21.59;67.90;101013.50;5063881;28;20044;-79
2021/06/25 06:38:59;;;;;;;11.52;9.60;;;;;;;21.72;70.94;101010.94;5059966;28;20036;-79
2021/06/25 06:41:27;;;;;;;13.02;10.45;;;;;;;21.87;70.62;101007.31;5049994;28;20071;-79
2021/06/25 06:43:54;;;;;;;10.32;8.80;;;;;;;22.02;69.61;101013.53;5067133;28;20094;-80
2021/06/25 06:46:20;;;;;;;12.75;10.60;;;;;;;22.10;68.17;101016.66;5046034;28;20040;-80
2021/06/25 06:48:47;;;;;;;11.75;10.55;;;;;;;21.55;66.07;101013.81;5061331;28;20029;-79
2021/06/25 06:51:18;;;;;;;10.88;9.30;;;;;;;22.04;67.45;101013.47;5036499;28;20050;-79
2021/06/25 06:53:45;;;;;;;9.23;8.00;;;;;;;22.25;67.68;101013.97;5064988;28;20044;-81
2021/06/25 06:56:13;;;;;;;12.45;9.00;;;;;;;22.41;67.61;101017.41;5064529;28;20418;-81
2021/06/25 06:58:42;;;;;;;9.07;8.00;;;;;;;22.46;64.59;101010.78;5051735;28;20157;-81
2021/06/25 07:01:09;;;;;;;10.63;7.60;;;;;;;22.63;66.28;101011.50;5066750;28;20041;-80
2021/06/25 07:03:56;;;;;;;9.45;7.97;;;;;;;22.35;64.83;101005.19;5057935;28;20510;-79
2021/06/25 07:06:23;;;;;;;9.30;8.40;;;;;;;22.56;63.82;101013.72;5046616;28;20067;-80
2021/06/25 07:08:50;;;;;;;8.70;7.55;;;;;;;22.81;63.43;101020.22;5047275;28;20040;-81
2021/06/25 07:11:17;;;;;;;8.95;7.40;;;;;;;22.91;63.19;101014.13;5049220;28;20045;-80
2021/06/25 07:13:44;;;;;;;9.75;8.75;;;;;;;22.93;60.13;101012.19;5062720;28;20044;-80
2021/06/25 07:16:14;;;;;;;12.23;10.63;;;;;;;22.42;58.79;101020.00;5054463;28;20469;-81
2021/06/25 07:18:42;;;;;;;10.20;8.65;;;;;;;22.65;61.28;101017.66;5057662;28;20044;-81
2021/06/25 07:21:09;;;;;;;10.43;8.65;;;;;;;22.92;62.66;101026.63;5067209;28;20045;-80
2021/06/25 07:23:35;;;;;;;8.60;6.93;;;;;;;23.16;64.04;101026.84;5065162;28;20040;-81
2021/06/25 07:26:03;;;;;;;7.40;5.65;;;;;;;23.19;61.26;101025.75;5054523;28;20635;-81
2021/06/25 07:28:29;;;;;;;10.95;9.52;;;;;;;22.40;58.14;101018.38;5062120;28;20044;-80
2021/06/25 07:30:56;;;;;;;8.25;6.80;;;;;;;22.63;61.73;101016.91;5054097;28;20036;-81
2021/06/25 07:33:23;;;;;;;8.60;7.50;;;;;;;22.58;60.95;101016.31;5051706;28;20040;-81
2021/06/25 07:35:49;;;;;;;8.05;6.70;;;;;;;22.73;61.89;101012.63;5064708;28;20048;-81
2021/06/25 07:38:16;;;;;;;6.43;5.82;;;;;;;22.99;62.92;101027.97;5069937;28;20040;-82
2021/06/25 07:40:43;;;;;;;9.07;7.78;;;;;;;22.87;55.94;101026.09;5068555;28;20217;-80
2021/06/25 07:43:10;;;;;;;8.88;7.97;;;;;;;22.66;57.17;101028.31;5071790;28;20045;-81
2021/06/25 07:45:36;;;;;;;8.40;5.88;;;;;;;22.40;58.58;101026.44;5052763;28;20060;-82
2021/06/25 07:48:03;;;;;;;7.68;6.32;;;;;;;22.62;62.31;101025.94;5057693;28;20040;-80
2021/06/25 07:50:30;;;;;;;8.60;6.97;;;;;;;22.87;59.62;101026.09;5052363;28;20106;-81
2021/06/25 07:52:57;;;;;;;7.65;6.85;;;;;;;23.08;59.11;101018.41;5076671;28;20055;-81
2021/06/25 07:55:24;;;;;;;5.97;5.38;;;;;;;23.08;58.31;101014.84;5075375;28;20033;-81
2021/06/25 07:57:51;;;;;;;8.70;6.97;;;;;;;22.88;57.88;101024.28;5066560;28;20060;-81
2021/06/25 08:00:17;;;;;;;6.65;6.00;;;;;;;22.77;56.00;101020.41;5059886;28;20525;-82
2021/06/25 08:02:46;;;;;;;8.40;7.18;;;;;;;22.28;59.28;101013.75;5069238;28;20033;-80
2021/06/25 08:05:13;;;;;;;6.72;5.60;;;;;;;22.26;59.74;101018.38;5059397;28;20024;-81
2021/06/25 08:07:40;;;;;;;6.47;5.78;;;;;;;22.23;60.71;101015.91;5065990;28;20067;-80
2021/06/25 08:10:07;;;;;;;7.00;6.30;;;;;;;22.27;60.24;101010.19;5068841;28;20394;-81
2021/06/25 08:12:34;;;;;;;6.75;6.10;;;;;;;22.17;57.89;101006.38;5085624;28;20033;-80
2021/06/25 08:15:03;;;;;;;7.18;6.47;;;;;;;22.46;59.92;101010.78;5067916;28;20036;-81
2021/06/25 08:17:29;;;;;;;7.80;7.00;;;;;;;22.40;55.40;101005.78;5055330;28;20041;-83
2021/06/25 08:19:56;;;;;;;6.80;6.07;;;;;;;22.49;55.38;101007.00;5072336;28;20485;-81
2021/06/25 08:22:23;;;;;;;8.38;6.10;;;;;;;22.40;56.97;101013.84;5065707;28;20037;-81
2021/06/25 08:24:49;;;;;;;8.02;7.22;;;;;;;22.02;58.03;101010.84;5074865;28;20033;-82
2021/06/25 08:27:19;;;;;;;9.35;6.72;;;;;;;21.96;59.04;101008.56;5053911;28;20059;-81
2021/06/25 08:29:46;;;;;;;6.90;6.00;;;;;;;21.55;58.46;101011.13;5061110;28;20055;-82
2021/06/25 08:32:13;;;;;;;7.70;5.60;;;;;;;21.49;62.55;101014.16;5041858;28;20098;-80
2021/06/25 08:34:39;;;;;;;7.32;6.63;;;;;;;21.43;62.40;101017.22;5058956;28;20513;-82
2021/06/25 08:37:06;;;;;;;6.60;6.00;;;;;;;21.20;63.19;101023.94;5064578;28;20033;-80
2021/06/25 08:39:51;;;;;;;6.28;5.68;;;;;;;21.14;62.48;101018.91;5075102;28;20037;-81
2021/06/25 08:42:39;;;;;;;8.32;6.53;;;;;;;21.05;64.31;101023.88;5050461;28;20053;-81
2021/06/25 08:45:11;;;;;;;7.13;6.22;;;;;;;21.00;64.68;101017.88;5035918;28;20425;-81
2021/06/25 08:47:50;;;;;;;7.18;6.40;;;;;;;20.92;63.76;101021.97;5069326;28;20090;-82
2021/06/25 08:50:25;;;;;;;6.82;6.13;;;;;;;21.06;64.51;101019.38;5053520;28;20072;-83
2021/06/25 08:52:54;;;;;;;8.23;6.73;;;;;;;21.06;62.60;101019.38;5036537;28;20047;-81
2021/06/25 08:55:22;;;;;;;8.43;6.80;;;;;;;21.25;63.68;101016.44;5047127;28;20290;-79
2021/06/25 08:57:48;;;;;;;9.27;7.88;;;;;;;21.70;59.83;101018.25;5068978;28;20043;-81
2021/06/25 09:00:16;;;;;;;10.88;7.75;;;;;;;22.12;60.59;101013.88;5058863;28;20060;-80
2021/06/25 09:02:44;;;;;;;7.80;6.95;;;;;;;22.50;59.04;101010.56;5064552;28;20041;-80
2021/06/25 09:05:20;;;;;;;7.72;6.93;;;;;;;22.78;59.07;101010.47;5027575;28;20037;-82
2021/06/25 09:07:47;;;;;;;8.98;8.07;;;;;;;22.96;57.69;101003.06;5073204;28;20033;-81
2021/06/25 09:10:16;;;;;;;8.45;7.22;;;;;;;23.09;56.98;101005.78;5036081;28;20564;-81
2021/06/25 09:13:11;;;;;;;8.70;7.47;;;;;;;23.37;57.32;101002.06;5065150;28;20106;-82
2021/06/25 09:15:42;;;;;;;7.70;6.30;;;;;;;23.76;57.28;101004.75;5034445;28;20045;-81
2021/06/25 09:18:11;;;;;;;7.50;6.68;;;;;;;23.67;55.45;101009.94;5029826;28;20052;-82
2021/06/25 09:20:43;;;;;;;7.85;6.28;;;;;;;23.66;56.21;101014.47;5033725;28;20056;-82
2021/06/25 09:23:12;;;;;;;7.70;5.63;;;;;;;23.52;55.86;101006.44;5060454;28;20051;-81
2021/06/25 09:25:50;;;;;;;11.00;5.90;;;;;;;23.37;54.28;101011.03;5047066;28;20052;-81
2021/06/25 09:28:34;;;;;;;6.68;5.93;;;;;;;23.86;53.03;101013.06;5026508;28;20425;-81
2021/06/25 09:31:01;;;;;;;;;;;;;;;24.04;53.47;101005.50;5059964;28;20906;-82
2021/06/25 09:33:28;;;;;;;11.77;6.97;;;;;;;24.02;52.82;101004.75;5052011;28;19981;-82
2021/06/25 09:35:56;;;;;;;9.40;6.40;;;;;;;23.90;52.29;100994.84;5046685;28;20041;-81
2021/06/25 09:38:33;;;;;;;6.82;5.72;;;;;;;23.79;50.16;100999.13;5045403;28;20097;-82
2021/06/25 09:41:00;;;;;;;5.15;4.65;;;;;;;23.44;50.08;100993.47;5037469;28;20074;-81
2021/06/25 09:43:32;;;;;;;7.88;5.18;;;;;;;23.47;54.67;101001.38;5045027;28;20477;-81
2021/06/25 09:46:03;;;;;;;8.05;6.65;;;;;;;23.30;53.45;101001.66;5048139;28;20136;-82
2021/06/25 09:48:53;;;;;;;6.10;5.25;;;;;;;23.19;56.91;101005.06;5037499;28;20040;-81
2021/06/25 09:51:21;;;;;;;5.68;5.18;;;;;;;23.24;57.43;100999.38;5047881;28;20032;-81
2021/06/25 09:54:08;;;;;;;6.20;5.55;;;;;;;23.51;56.14;100996.63;5043011;28;20411;-81
2021/06/25 09:57:18;;;;;;;6.00;5.50;;;;;;;23.74;56.56;101001.31;5037357;28;20044;-82
2021/06/25 10:02:19;;;;;;;;;;;;;;;23.73;53.47;100999.59;5063906;28;20044;-81
2021/06/25 10:04:48;;;;;;;6.55;5.95;;;;;;;23.27;51.41;100993.75;5063272;28;19931;-81
2021/06/25 10:07:19;;;;;;;6.38;5.78;;;;;;;23.47;53.26;100993.28;5059026;28;20044;-81
2021/06/25 10:09:48;;;;;;;7.18;5.80;;;;;;;23.22;52.21;100991.41;5055302;28;20050;-82
2021/06/25 10:12:17;;;;;;;7.82;5.32;;;;;;;23.44;52.86;100985.38;5051781;28;20091;-82
2021/06/25 10:14:46;;;;;;;6.32;5.53;;;;;;;23.61;54.31;100992.34;5051219;28;20041;-80
2021/06/25 10:17:13;;;;;;;7.45;5.78;;;;;;;24.09;50.00;100988.00;5051585;28;20621;-81
2021/06/25 10:19:42;;;;;;;6.57;5.32;;;;;;;24.40;50.75;100978.59;5067263;28;20049;-82
2021/06/25 10:22:10;;;;;;;7.13;5.45;;;;;;;24.86;50.47;100990.50;5076316;28;20068;-82
2021/06/25 10:24:39;;;;;;;5.07;4.35;;;;;;;25.29;46.77;100988.13;5062937;28;20078;-82
2021/06/25 10:27:08;;;;;;;5.60;4.72;;;;;;;25.38;46.38;100982.03;5064249;28;20553;-80
2021/06/25 10:29:35;;;;;;;4.55;4.13;;;;;;;25.51;45.20;100992.75;5049541;28;20045;-82
2021/06/25 10:32:07;;;;;;;4.90;4.40;;;;;;;25.36;45.68;100999.34;5054586;28;20040;-82
2021/06/25 10:34:37;;;;;;;6.07;4.63;;;;;;;25.22;43.31;100981.47;5052385;28;20049;-81
2021/06/25 10:37:07;;;;;;;5.50;3.95;;;;;;;25.34;45.04;100985.97;5061160;28;20037;-81
2021/06/25 10:39:35;;;;;;;5.03;3.50;;;;;;;25.53;44.19;100985.38;5050499;28;20082;-81
2021/06/25 10:42:04;;;;;;;5.07;4.15;;;;;;;25.36;43.17;100985.84;5027887;28;20046;-82
2021/06/25 10:44:44;;;;;;;4.20;3.80;;;;;;;25.70;43.33;100981.34;5039988;28;20497;-80
2021/06/25 10:47:20;;;;;;;6.53;4.35;;;;;;;25.55;42.08;100989.69;5043212;28;20468;-82
2021/06/25 10:50:10;;;;;;;3.78;3.40;;;;;;;25.84;42.95;100980.31;5052276;28;20141;-81
2021/06/25 10:52:38;;;;;;;4.45;3.65;;;;;;;25.94;41.14;100970.47;5055258;28;20652;-82
2021/06/25 10:55:08;;;;;;;5.00;4.00;;;;;;;25.93;41.56;100968.75;5064506;28;20066;-81
2021/06/25 10:57:54;;;;;;;3.80;3.40;;;;;;;26.02;42.36;100976.13;5052367;28;20048;-80
2021/06/25 11:00:26;;;;;;;5.20;3.50;;;;;;;25.51;41.36;100974.69;5048651;28;20055;-81
2021/06/25 11:02:54;;;;;;;3.42;3.03;;;;;;;25.11;43.49;100981.44;5050234;28;20036;-80
2021/06/25 11:05:30;;;;;;;5.22;3.60;;;;;;;25.15;44.75;100980.25;5055289;28;20044;-80
2021/06/25 11:07:57;;;;;;;4.03;3.53;;;;;;;24.57;41.76;100982.75;5062598;28;20044;-80
2021/06/25 11:10:34;;;;;;;3.88;3.30;;;;;;;24.05;42.44;100983.81;5056696;28;20048;-80
2021/06/25 11:13:21;;;;;;;3.63;3.33;;;;;;;24.17;44.13;100983.91;5040395;28;20079;-80
2021/06/25 11:15:53;;;;;;;4.20;2.92;;;;;;;24.24;44.55;100980.66;5048593;28;20047;-81
2021/06/25 11:18:22;;;;;;;5.85;3.63;;;;;;;24.14;42.95;100985.84;5039082;28;20049;-81
2021/06/25 11:20:51;;;;;;;4.07;3.35;;;;;;;24.14;45.27;100987.69;5059765;28;20029;-79
2021/06/25 11:23:40;;;;;;;4.05;3.40;;;;;;;23.77;45.81;100979.50;5076282;28;20040;-80
2021/06/25 11:26:19;;;;;;;3.33;3.03;;;;;;;23.88;46.11;100981.47;5053161;28;20084;-80
2021/06/25 11:28:50;;;;;;;3.65;3.05;;;;;;;23.74;42.90;100990.50;5067077;28;20048;-81
2021/06/25 11:31:20;;;;;;;3.50;3.20;;;;;;;23.67;46.37;100999.16;5050638;28;20552;-80
2021/06/25 11:33:47;;;;;;;3.40;3.10;;;;;;;23.58;45.98;100985.28;5060555;28;20041;-81
2021/06/25 11:36:13;;;;;;;4.20;3.30;;;;;;;23.72;46.64;100994.31;5062760;28;20535;-81